Hauptseite
METAR-TAF:

METAR-TAF

Flughäfen :

Niamey, Niger

Flughafen Niamey

Breite: 13-29N, Länge: 002-10E, Höhe: 223 m

Beobachtung

Neuester Wetterbericht von vor 1 Stunde und 20 Minuten, um 04:00 UTC
Wind 5 kt aus Nord/Nordost
Temperatur 28°C
Luftfeuchtigkeit 13%
Luftdruck 1009 hPa
Sichtweite: 8000 m

METAR: DRRN 260400Z 02005KT 8000 NSC 28/M03 Q1009 NOSIG

Zeit: 06:20 (05:20 UTC)

Prognose

Neuester Wetterbericht von vor 6 Stunden und 20 Minuten, um 23:00 UTC
Gültige Prognose vom 26 um 00 UTC bis 27 um 06 UTC
Wind 6 kt aus Nord/Nordost
Sichtweite: 8000 m
Zeitweise
vom 26 um 06 UTC bis 26 um 09 UTC
Sichtweite: 4500 m
verbreitet Staub
Zeitweise
vom 26 um 09 UTC bis 26 um 13 UTC
Wind 18 kt aus Nordost
Sichtweite: 3500 m
Staubtreiben

TAF: DRRN 252300Z 2600/2706 02006KT 8000 NSC TEMPO 2606/2609 4500 DU TEMPO 2609/2613 04018KT 3500 BLDU

Wetterbeobachtungen und Prognosen von mehr als 4000 Flughäfen (METAR und TAF Bericht).

Die verfügbaren Stationen werden durch gelbe und rote Markierungen auf der Karte dargestellt.

Führen Sie die Maus auf sie, um den Namen der Station zu sehen.

Darauf klicken, um die Beobachtung von Wetterbeobachtungen und Prognosen zu sehen.

Um die Karte zu ändern : klicken Sie auf den grünen Tasten mit einem schwarzen Kreuz Zum Vergrößern, auf den grünen Button mit einem Gedankenstrich zu verkleinern, oder auf die grünen Pfeile für benachbarte Karten.


METAR-TAF: